Alpha, California Weather observations

Data are for observation ending at time listed.
 Day   Time    Ave.   Ave.  Ave.  Vector   Max.   Stn.    Total    Solar   Ave.   Snow 
  of    of     Air    Rel.  Wind   Wind    Wind   Baro.  Precip.   Rad.    Soil   Depth
Year   Day     Temp.  Hum.  Speed  Dir.    Gust   Pres.                    Temp.       
2014   (PST)    F      %     mph   deg.    mph     mb.     in.     W/m2     F      in. 
---------------------------------------------------------------------------------------  
 212   16:40   72.8    28    2.1   293      9.1   792.1    0.00     181    999.0  162.0
 212   16:50   71.9    29    2.5   265      7.2   792.1    0.00     261    999.0  162.0
 212   17:00   72.2    29    1.7   294      6.5   792.0    0.00     236    999.0  162.0
 212   17:10   72.2    29    1.9   284      5.8   791.9    0.00     212    999.0  162.0
 212   17:20   71.9    29    2.2   281      7.0   791.9    0.00     188    999.0  162.0
 212   17:30   71.2    30    2.4   278      6.3   791.9    0.00     165    999.0  161.9
 212   17:40   71.4    30    1.4   316      4.0   791.9    0.00     142    999.0  162.1
 212   17:50   71.4    30    1.2   298      4.6   791.9    0.00     118    999.0  162.1
 212   18:00   70.7    31    1.9   282      7.4   792.0    0.00      97    999.0  162.0
 212   18:10   70.1    32    1.8   281      4.7   792.0    0.00      78    999.0  162.0
 212   18:20   69.0    33    1.9   300      4.5   792.0    0.00      48    999.0  161.9
 212   18:30   67.5    35    1.8   299      5.3   792.0    0.00      23    999.0  161.9
 212   18:40   66.9    36    1.7   311      3.4   792.1    0.00      20    999.0  161.8
 212   18:50   66.2    37    1.3   314      4.1   792.1    0.00      12    999.0  161.8
 212   19:00   65.6    38    1.6   311      3.6   792.1    0.00       8    999.0  161.9
 212   19:10   64.9    40    1.2   322      2.4   792.2    0.00       5    999.0  161.9
 212   19:20   64.1    41    1.4   318      2.2   792.2    0.00       2    999.0  161.7
 212   19:30   63.6    42    1.7   327      3.0   792.2    0.00       0    999.0  161.8
 212   19:40   63.3    42    1.7   325      2.5   792.3    0.00       0    999.0  161.9
 212   19:50   63.3    42    2.0   326      2.6   792.4    0.00       0    999.0  161.9
 212   20:00   63.2    42    2.1   330      3.4   792.4    0.00       0    999.0  161.9
 212   20:10   63.1    42    2.1   334      3.2   792.5    0.00       0    999.0  161.9
 212   20:20   62.9    42    2.3   335      4.0   792.5    0.00       0    999.0  161.9
 212   20:30   63.1    42    2.2   334      4.3   792.6    0.00       0    999.0  161.9
 212   20:40   63.2    42    2.4   333      4.1   792.7    0.00       0    999.0  161.7
 212   20:50   63.4    42    2.5   334      3.9   792.8    0.00       0    999.0  161.5
 212   21:00   63.5    42    2.5   342      4.0   792.8    0.00       0    999.0  161.3
 212   21:10   63.6    42    1.8   344      5.0   792.7    0.00       0    999.0  161.4
 212   21:20   63.5    42    1.2   341      2.5   792.6    0.00       0    999.0  161.8
 212   21:30   63.4    42    1.3   341      2.5   792.7    0.00       0    999.0  161.8
 212   21:40   63.3    42    1.7   351      2.9   792.6    0.00       0    999.0  161.8
 212   21:50   63.2    43    0.8   348      2.3   792.5    0.00       0    999.0  161.9
 212   22:00   63.0    43    1.0   353      2.3   792.5    0.00       0    999.0  161.8
 212   22:10   63.2    42    2.0     7      3.4   792.5    0.00       0    999.0  161.7
 212   22:20   63.0    42    0.5    70      1.8   792.4    0.00       0    999.0  161.8
 212   22:30   62.9    42    0.6    71      1.2   792.4    0.00       0    999.0  161.9
 212   22:40   63.1    42    0.5    66      1.2   792.4    0.00       0    999.0  161.5
 212   22:50   63.2    42    0.4    66      0.7   792.4    0.00       0    999.0  145.9
 212   23:00   63.2    42    0.2    66      0.8   792.4    0.00       0    999.0  116.9
 212   23:10   63.0    42    0.6    72      1.2   792.4    0.00       0    999.0   14.2
 212   23:20   63.3    41    0.3    75      1.4   792.3    0.00       0    999.0   14.1
 212   23:30   63.4    41    1.1    92      1.7   792.3    0.00       0    999.0   14.0
 212   23:40   63.6    39    0.0    61      0.5   792.2    0.00       0    999.0   14.1
 212   23:50   63.8    38    0.0   151      0.9   792.2    0.00       0    999.0  132.7
 213    0:00   63.9    38    0.7   162      1.4   792.2    0.00       0    999.0  161.5
 213    0:10   64.2    39    0.6   148      1.3   792.2    0.00       0    999.0  130.9
 213    0:20   64.2    39    0.6   153      1.2   792.2    0.00       0    999.0   13.4
 213    0:30   64.3    39    0.3   167      1.4   792.1    0.00       0    999.0   43.3
 213    0:40   64.3    38    0.1   174      2.1   792.1    0.00       0    999.0   59.0
 213    0:50   64.2    40    1.2   209      2.5   792.1    0.00       0    999.0  161.0
 213    1:00   63.6    41    1.5   264      2.9   792.1    0.00       0    999.0  161.0
 213    1:10   63.6    41    1.5   285      2.8   792.1    0.00       0    999.0   72.7
 213    1:20   63.6    41    0.6   310      1.9   792.1    0.00       0    999.0  161.0
 213    1:30   63.2    41    1.0   338      2.0   792.0    0.00       0    999.0  161.0
 213    1:40   63.1    41    0.6   336      2.1   792.0    0.00       0    999.0  161.0
 213    1:50   63.0    41    0.3   350      1.0   791.9    0.00       0    999.0  161.1
 213    2:00   62.9    41    0.5   350      0.9   791.9    0.00       0    999.0  161.5
 213    2:10   62.6    41    0.2   351      0.9   791.8    0.00       0    999.0  116.2
 213    2:20   62.3    41    0.0   351      0.4   791.8    0.00       0    999.0   14.4
 213    2:30   62.5    41    0.0   351      0.4   791.8    0.00       0    999.0   14.4
 213    2:40   62.4    40    0.0     0      0.0   791.8    0.00       0    999.0   14.2
 213    2:50   62.3    39    0.0     0      0.0   791.8    0.00       0    999.0   14.0
 213    3:00   62.8    38    0.4   332      0.9   791.7    0.00       0    999.0   28.7
 213    3:10   63.0    38    0.5   332      0.9   791.7    0.00       0    999.0   14.2
 213    3:20   63.1    37    0.3   344      1.2   791.7    0.00       0    999.0  132.4
 213    3:30   63.4    38    0.1   340      0.5   791.7    0.00       0    999.0  161.0
 213    3:40   63.3    39    0.9   325      1.3   791.7    0.00       0    999.0   28.1
 213    3:50   62.9    41    0.3   328      1.2   791.8    0.00       0    999.0   58.8
 213    4:00   62.3    43    0.0   326      0.3   791.7    0.00       0    999.0   72.0
 213    4:10   62.2    41    0.0    13      0.1   791.6    0.00       0    999.0   43.5
 213    4:20   62.9    39    1.3    94      3.1   791.6    0.00       0    999.0   13.9
 213    4:30   63.0    41    1.1   115      2.3   791.6    0.00       0    999.0   14.0
 213    4:40   62.8    42    2.0   128      3.7   791.6    0.00       0    999.0   29.4
 213    4:50   62.7    44    3.1   108      4.9   791.6    0.00       0    999.0   57.1
 213    5:00   62.3    45    2.8   118      5.2   791.6    0.00       3    999.0   13.6
 213    5:10   62.0    46    3.6    91      9.2   791.5    0.00       4    999.0   72.9
 213    5:20   62.2    46    4.3    95      8.1   791.5    0.00       7    999.0   13.9
 213    5:30   62.3    46    4.5    90      8.8   791.5    0.00      10    999.0   14.1
 213    5:40   62.5    46    4.8    91     10.2   791.5    0.00      24    999.0   13.5
 213    5:50   63.1    45    4.3    90      8.4   791.5    0.00      27    999.0   13.5
 213    6:00   63.2    45    4.2    96      8.3   791.5    0.00      21    999.0   13.7
 213    6:10   63.1    46    4.1    98      8.3   791.5    0.00      32    999.0   42.2
 213    6:20   63.7    45    4.4    96      7.3   791.6    0.00      60    999.0   28.6
 213    6:30   64.4    44    4.3    98      7.2   791.6    0.00      68    999.0  143.9
 213    6:40   64.0    46    3.5   101      6.6   791.7    0.00      67    999.0  161.0
 213    6:50   64.1    45    3.2   104      5.9   791.8    0.00      69    999.0  160.6
 213    7:00   65.2    44    3.2   113      6.1   791.8    0.00     135    999.0  157.5
 213    7:10   66.0    42    3.2   118      6.1   791.8    0.00     217    999.0  143.1
 213    7:20   67.5    41    2.9   103      5.4   791.9    0.00     246    999.0  160.4
 213    7:30   68.4    39    2.1   135      4.2   791.9    0.00     270    999.0  161.6
 213    7:40   68.4    39    2.4   136      6.0   791.9    0.00     283    999.0  161.6
 213    7:50   68.8    38    2.5   134      5.4   791.9    0.00     337    999.0  161.9
 213    8:00   68.9    36    2.5   152      5.4   791.9    0.00     336    999.0  161.9
 213    8:10   68.3    39    3.3   179      5.9   791.9    0.00     363    999.0  161.9
 213    8:20   68.4    38    3.6   172      7.3   791.9    0.00     384    999.0  161.6
 213    8:30   68.1    39    4.8   169      8.5   792.0    0.00     404    999.0  161.8
 213    8:40   68.4    38    3.7   178      7.3   792.0    0.00     426    999.0  161.9
 213    8:50   68.8    39    2.6   204      6.2   792.0    0.00     449    999.0  161.9
 213    9:00   69.2    39    2.6   190      5.3   792.1    0.00     457    999.0  161.9
 213    9:10   69.4    37    2.5   228      8.0   792.1    0.00     496    999.0  161.9
 213    9:20   69.7    36    3.1   196      6.9   792.1    0.00     507    999.0  161.8
 213    9:30   69.4    36    3.1   202      6.6   792.2    0.00     511    999.0  161.4
 213    9:40   70.3    33    2.1   232      7.5   792.2    0.00     513    999.0  161.6
 213    9:50   70.4    30    2.3   266      7.5   792.2    0.00     554    999.0  161.8
 213   10:00   71.1    29    1.5   275      4.8   792.2    0.00     583    999.0  161.8
 213   10:10   71.5    27    2.2   261      6.2   792.2    0.00     610    999.0  161.8
 213   10:20   71.0    27    2.5   246      6.1   792.2    0.00     623    999.0  161.8
 213   10:30   71.2    26    2.3   240      9.1   792.2    0.00     628    999.0  161.8
 213   10:40   73.0    24    1.5   271      4.9   792.3    0.00     650    999.0  161.8
 213   10:50   73.0    23    1.6   344      6.6   792.3    0.00     662    999.0  161.9
 213   11:00   73.7    24    2.3   212      6.6   792.3    0.00     668    999.0  161.9
 213   11:10   73.8    22    2.4   263      7.0   792.3    0.00     677    999.0  161.9
 213   11:20   73.0    22    2.6   244      6.6   792.3    0.00     689    999.0  162.0
 213   11:30   73.4    21    2.0   216      5.5   792.2    0.00     693    999.0  161.8
 213   11:40   74.9    21    3.0   215      6.9   792.2    0.00     695    999.0  161.8
 213   11:50   74.5    20    5.1   181     13.3   792.2    0.00     696    999.0  161.8
 213   12:00   72.8    21    5.0   180     12.3   792.2    0.00     700    999.0  161.8
 213   12:10   73.6    20    3.8   191     11.7   792.2    0.00     700    999.0  161.8
 213   12:20   74.0    19    2.2   274      6.1   792.2    0.00     699    999.0  161.8
 213   12:30   75.0    19    1.7   314      3.6   792.2    0.00     701    999.0  161.8
 213   12:40   76.2    18    2.4   216      8.5   792.1    0.00     696    999.0  161.7
 213   12:50   75.4    18    4.9   200     11.4   792.1    0.00     689    999.0  161.8
 213   13:00   74.5    19    2.4   252      6.0   792.1    0.00     684    999.0  161.8
 213   13:10   75.4    18    3.0   214      9.1   792.0    0.00     680    999.0  161.8
 213   13:20   75.7    18    3.0   214      7.8   792.0    0.00     651    999.0  161.7
 213   13:30   75.6    18    4.4   211     11.1   791.9    0.00     572    999.0  161.8
 213   13:40   73.7    18    2.8   267      8.0   791.9    0.00     573    999.0  161.8
 213   13:50   75.2    18    1.9   260      7.6   791.9    0.00     586    999.0  161.7
 213   14:00   76.2    18    3.5   217     10.2   791.9    0.00     625    999.0  161.7
 213   14:10   75.6    18    3.6   208      9.6   791.9    0.00     610    999.0  161.8
 213   14:20   75.4    19    3.4   213      9.1   791.8    0.00     576    999.0  161.8
 213   14:30   75.0    19    3.8   203      9.6   791.8    0.00      81    999.0  161.8
 213   14:40   74.9    20    3.4   193      9.7   791.7    0.00     100    999.0  161.8
 213   14:50   75.0    19    3.6   198      8.6   791.7    0.00     267    999.0  161.8
 213   15:00   74.8    20    4.1   206     12.4   791.6    0.00     180    999.0  161.8
 213   15:10   75.2    19    4.6   198     11.8   791.5    0.00     396    999.0  161.8
 213   15:20   74.4    19    3.7   223      9.4   791.6    0.00      49    999.0  161.8
 213   15:30   73.8    19    3.7   213      9.1   791.5    0.00      30    999.0  161.8
 213   15:40   73.7    19    4.5   200     12.5   791.4    0.00      81    999.0  161.8
 213   15:50   73.2    19    4.0   218      9.2   791.4    0.00      26    999.0  161.8
 213   16:00   73.8    19    2.4   233      6.6   791.4    0.00      44    999.0  161.8
 213   16:10   74.3    18    2.3   221      7.9   791.4    0.00      23    999.0  161.8
 213   16:20   74.4    18    2.5   226      6.6   791.3    0.00      45    999.0  161.8
 213   16:30   74.4    17    2.9   245      9.2   791.3    0.00      27    999.0  161.9

Return to Alpha graphs page.


Western Regional Climate Center,wrcc@dri.edu